createdAt,value
2019-03-02T00:01:38.032Z,3.30
2019-03-02T00:04:09.606Z,3.70
2019-03-02T00:06:35.752Z,3.90
2019-03-02T00:09:06.088Z,3.70
2019-03-02T00:11:33.689Z,3.97
2019-03-02T00:14:01.440Z,4.17
2019-03-02T00:16:29.100Z,3.97
2019-03-02T00:18:56.742Z,3.90
2019-03-02T00:21:27.673Z,4.07
2019-03-02T00:23:54.338Z,4.40
2019-03-02T00:26:22.899Z,4.30
2019-03-02T00:28:50.529Z,3.57
2019-03-02T00:31:18.148Z,4.07
2019-03-02T00:33:45.740Z,3.50
2019-03-02T00:36:15.942Z,4.23
2019-03-02T00:38:43.470Z,4.80
2019-03-02T00:41:11.981Z,5.37
2019-03-02T00:43:39.530Z,4.70
2019-03-02T00:46:07.133Z,4.27
2019-03-02T00:48:34.790Z,4.13
2019-03-02T00:51:02.399Z,4.23
2019-03-02T00:53:31.851Z,4.87
2019-03-02T00:55:59.518Z,4.37
2019-03-02T00:58:28.971Z,5.30
2019-03-02T01:00:56.531Z,4.47
2019-03-02T01:03:24.092Z,3.80
2019-03-02T01:05:51.647Z,5.10
2019-03-02T01:08:19.320Z,5.10
2019-03-02T01:10:46.917Z,4.40
2019-03-02T01:13:16.767Z,4.40
2019-03-02T01:15:44.076Z,4.80
2019-03-02T01:18:12.483Z,4.70
2019-03-02T01:20:40.064Z,4.67
2019-03-02T01:23:07.853Z,4.40
2019-03-02T01:25:35.478Z,4.43
2019-03-02T01:28:03.048Z,5.10
2019-03-02T01:30:30.977Z,5.40
2019-03-02T01:32:58.595Z,4.70
2019-03-02T01:35:26.205Z,6.50
2019-03-02T01:37:53.835Z,5.73
2019-03-02T01:40:21.462Z,5.90
2019-03-02T01:42:49.048Z,5.40
2019-03-02T01:45:16.835Z,5.70
2019-03-02T01:47:50.811Z,5.53
2019-03-02T01:50:16.809Z,4.77
2019-03-02T01:52:44.446Z,4.70
2019-03-02T01:55:12.243Z,5.00
2019-03-02T01:57:39.849Z,5.27
2019-03-02T02:00:13.775Z,5.23
2019-03-02T02:02:40.843Z,5.00
2019-03-02T02:05:08.490Z,5.87
2019-03-02T02:07:36.136Z,5.87
2019-03-02T02:10:07.236Z,5.70
2019-03-02T02:12:34.868Z,5.50
2019-03-02T02:15:02.472Z,5.33
2019-03-02T02:17:30.096Z,5.23
2019-03-02T02:19:57.661Z,4.30
2019-03-02T02:22:25.321Z,4.70
2019-03-02T02:24:52.943Z,5.17
2019-03-02T02:27:22.510Z,4.40
2019-03-02T02:29:49.954Z,4.93
2019-03-02T02:32:19.252Z,4.47
2019-03-02T02:34:46.995Z,4.97
2019-03-02T02:37:14.669Z,4.27
2019-03-02T02:39:42.312Z,4.43
2019-03-02T02:42:09.948Z,3.67
2019-03-02T02:44:39.038Z,3.50
2019-03-02T02:47:11.615Z,3.60
2019-03-02T02:49:36.328Z,3.40
2019-03-02T02:52:03.992Z,3.30
2019-03-02T02:54:31.563Z,3.27
2019-03-02T02:57:00.545Z,3.13
2019-03-02T02:59:28.283Z,3.33
2019-03-02T03:01:55.859Z,3.07
2019-03-02T03:04:23.488Z,2.70
2019-03-02T03:06:51.134Z,2.70
2019-03-02T03:09:45.387Z,3.00
2019-03-02T03:12:11.168Z,2.90
2019-03-02T03:14:38.817Z,3.33
2019-03-02T03:17:06.495Z,2.80
2019-03-02T03:19:34.164Z,3.37
2019-03-02T03:22:02.393Z,3.27
2019-03-02T03:24:31.203Z,3.50
2019-03-02T03:26:58.803Z,3.07
2019-03-02T03:29:26.383Z,3.30
2019-03-02T03:31:54.047Z,3.60
2019-03-02T03:34:28.758Z,3.47
2019-03-02T03:36:51.086Z,4.00
2019-03-02T03:39:18.697Z,3.60
2019-03-02T03:41:46.345Z,3.40
2019-03-02T03:44:17.116Z,3.17
2019-03-02T03:46:43.434Z,3.60
2019-03-02T03:49:10.969Z,2.77
2019-03-02T03:51:38.613Z,2.60
2019-03-02T03:54:06.958Z,3.63
2019-03-02T03:56:37.895Z,2.93
2019-03-02T03:59:05.089Z,3.50
2019-03-02T04:01:32.692Z,2.80
2019-03-02T04:04:00.286Z,3.40
2019-03-02T04:06:29.158Z,3.17
2019-03-02T04:08:56.832Z,3.37
2019-03-02T04:11:24.561Z,3.30
2019-03-02T04:13:52.117Z,3.20
2019-03-02T04:16:20.708Z,3.70
2019-03-02T04:18:57.947Z,3.50
2019-03-02T04:21:30.677Z,3.43
2019-03-02T04:24:01.491Z,3.53
2019-03-02T04:26:31.692Z,3.70
2019-03-02T04:28:57.048Z,3.77
2019-03-02T04:31:24.691Z,3.73
2019-03-02T04:33:52.317Z,3.73
2019-03-02T04:36:19.939Z,4.17
2019-03-02T04:38:47.595Z,4.00
2019-03-02T04:41:15.171Z,4.00
2019-03-02T04:43:42.875Z,4.13
2019-03-02T04:46:11.751Z,4.40
2019-03-02T04:48:40.078Z,3.83
2019-03-02T04:51:07.700Z,3.97
2019-03-02T04:53:35.303Z,4.30
2019-03-02T04:56:02.946Z,4.30
2019-03-02T04:58:30.528Z,4.63
2019-03-02T05:00:58.185Z,4.53
2019-03-02T05:03:25.794Z,4.87
2019-03-02T05:05:53.434Z,4.93
2019-03-02T05:08:21.017Z,4.30
2019-03-02T05:10:48.633Z,5.43
2019-03-02T05:13:16.278Z,5.53
2019-03-02T05:15:43.947Z,4.90
2019-03-02T05:18:14.767Z,5.73
2019-03-02T05:20:42.132Z,4.80
2019-03-02T05:23:09.908Z,5.30
2019-03-02T05:25:37.524Z,4.33
2019-03-02T05:28:07.289Z,3.70
2019-03-02T05:30:34.544Z,5.03
2019-03-02T05:33:02.194Z,4.03
2019-03-02T05:35:29.804Z,3.97
2019-03-02T05:37:57.397Z,4.47
2019-03-02T05:40:27.790Z,3.83
2019-03-02T05:42:54.409Z,3.97
2019-03-02T05:45:23.850Z,4.17
2019-03-02T05:47:51.433Z,4.07
2019-03-02T05:50:19.017Z,3.90
2019-03-02T05:52:46.639Z,4.60
2019-03-02T05:55:18.069Z,4.13
2019-03-02T05:57:43.738Z,3.97
2019-03-02T06:00:11.982Z,4.43
2019-03-02T06:02:39.589Z,4.50
2019-03-02T06:05:07.383Z,4.07
2019-03-02T06:07:34.972Z,4.47
2019-03-02T06:10:02.610Z,4.50
2019-03-02T06:12:30.152Z,4.10
2019-03-02T06:14:57.823Z,4.73
2019-03-02T06:17:25.377Z,4.30
2019-03-02T06:19:55.805Z,4.00
2019-03-02T06:22:22.517Z,4.07
2019-03-02T06:24:50.122Z,4.20
2019-03-02T06:27:17.731Z,4.70
2019-03-02T06:29:45.327Z,4.77
2019-03-02T06:32:12.971Z,4.57
2019-03-02T06:34:40.567Z,4.80
2019-03-02T06:37:08.211Z,4.43
2019-03-02T06:39:35.780Z,5.17
2019-03-02T06:42:06.132Z,4.70
2019-03-02T06:44:34.130Z,5.07
2019-03-02T06:47:02.343Z,4.97
2019-03-02T06:49:30.042Z,4.57
2019-03-02T06:51:57.675Z,4.90
2019-03-02T06:54:25.332Z,5.10
2019-03-02T06:56:57.762Z,5.07
2019-03-02T06:59:22.363Z,5.43
2019-03-02T07:01:49.984Z,4.37
2019-03-02T07:04:18.074Z,5.07
2019-03-02T07:06:47.639Z,5.60
2019-03-02T07:09:15.370Z,5.10
2019-03-02T07:11:42.915Z,5.57
2019-03-02T07:14:10.594Z,6.40
2019-03-02T07:16:38.221Z,6.20
2019-03-02T07:19:27.626Z,6.87
2019-03-02T07:21:57.524Z,6.40
2019-03-02T07:24:25.911Z,7.07
2019-03-02T07:26:54.531Z,8.47
2019-03-02T07:29:22.993Z,7.70
2019-03-02T07:31:50.571Z,8.13
2019-03-02T07:34:18.202Z,8.80
2019-03-02T07:36:45.781Z,7.90
2019-03-02T07:39:13.351Z,8.07
2019-03-02T07:41:41.009Z,9.73
2019-03-02T07:44:08.676Z,9.87
2019-03-02T07:46:36.291Z,10.83
2019-03-02T07:49:03.878Z,10.50
2019-03-02T07:51:33.816Z,9.70
2019-03-02T07:54:02.157Z,12.77
2019-03-02T07:56:34.906Z,12.23
2019-03-02T07:59:05.800Z,12.63
2019-03-02T08:01:34.048Z,13.50
2019-03-02T08:04:01.677Z,13.23
2019-03-02T08:06:29.308Z,13.60
2019-03-02T08:08:56.964Z,14.50
2019-03-02T08:11:24.634Z,14.40
2019-03-02T08:13:52.244Z,14.47
2019-03-02T08:16:19.905Z,12.43
2019-03-02T08:18:47.481Z,14.23
2019-03-02T08:21:15.045Z,15.37
2019-03-02T08:23:42.652Z,14.43
2019-03-02T08:26:10.242Z,13.83
2019-03-02T08:28:37.865Z,15.63
2019-03-02T08:31:08.602Z,15.27
2019-03-02T08:33:34.919Z,14.40
2019-03-02T08:36:02.580Z,13.40
2019-03-02T08:38:30.201Z,15.20
2019-03-02T08:41:00.319Z,14.73
2019-03-02T08:43:27.330Z,14.70
2019-03-02T08:45:54.916Z,14.83
2019-03-02T08:48:22.515Z,15.17
2019-03-02T08:50:53.040Z,14.37
2019-03-02T08:53:19.622Z,14.10
2019-03-02T08:55:47.263Z,14.07
2019-03-02T08:58:14.890Z,13.93
2019-03-02T09:00:43.242Z,13.87
2019-03-02T09:03:10.940Z,13.13
2019-03-02T09:05:44.196Z,12.47
2019-03-02T09:08:07.973Z,12.87
2019-03-02T09:10:36.989Z,12.47
2019-03-02T09:13:04.705Z,13.47
2019-03-02T09:15:32.378Z,12.37
2019-03-02T09:18:00.108Z,11.93
2019-03-02T09:20:27.779Z,11.37
2019-03-02T09:22:56.319Z,12.97
2019-03-02T09:25:27.866Z,12.63
2019-03-02T09:27:54.736Z,11.77
2019-03-02T09:30:22.559Z,11.23
2019-03-02T09:32:51.217Z,10.90
2019-03-02T09:35:19.852Z,10.13
2019-03-02T09:37:47.517Z,11.27
2019-03-02T09:40:15.183Z,10.90
2019-03-02T09:42:42.757Z,12.20
2019-03-02T09:45:12.725Z,9.80
2019-03-02T09:47:43.776Z,10.13
2019-03-02T09:50:13.563Z,9.97
2019-03-02T09:52:40.759Z,8.43
2019-03-02T09:55:09.052Z,8.40
2019-03-02T09:57:36.724Z,8.17
2019-03-02T10:00:10.663Z,6.97
2019-03-02T10:02:38.648Z,6.27
2019-03-02T10:05:06.453Z,6.80
2019-03-02T10:07:34.514Z,7.60
2019-03-02T10:10:04.643Z,7.13
2019-03-02T10:12:32.252Z,6.73
2019-03-02T10:15:00.862Z,6.87
2019-03-02T10:17:30.520Z,7.37
2019-03-02T10:20:00.975Z,6.27
2019-03-02T10:22:27.472Z,6.20
2019-03-02T10:24:55.068Z,7.63
2019-03-02T10:27:22.697Z,6.30
2019-03-02T10:29:50.307Z,7.47
2019-03-02T10:32:19.557Z,6.20
2019-03-02T10:34:47.148Z,7.00
2019-03-02T10:37:14.769Z,7.70
2019-03-02T10:39:42.407Z,8.17
2019-03-02T10:42:09.999Z,8.90
2019-03-02T10:44:38.689Z,8.40
2019-03-02T10:47:07.171Z,9.50
2019-03-02T10:49:35.549Z,9.67
2019-03-02T10:52:03.231Z,8.30
2019-03-02T10:54:31.632Z,9.60
2019-03-02T10:57:01.005Z,9.90
2019-03-02T10:59:28.881Z,10.30
2019-03-02T11:01:56.521Z,10.50
2019-03-02T11:04:44.034Z,10.93
2019-03-02T11:07:35.806Z,11.17
2019-03-02T11:10:22.342Z,11.30
2019-03-02T11:13:08.088Z,10.77
2019-03-02T11:15:53.443Z,13.10
2019-03-02T11:18:46.551Z,12.30
2019-03-02T11:21:36.656Z,13.20
2019-03-02T11:24:26.401Z,13.63
2019-03-02T11:27:02.302Z,13.90
2019-03-02T11:29:52.196Z,14.67
2019-03-02T11:32:28.011Z,13.77
2019-03-02T11:35:06.778Z,13.93
2019-03-02T11:38:09.472Z,11.90
2019-03-02T11:41:01.075Z,12.30
2019-03-02T11:43:44.432Z,12.07
2019-03-02T11:46:21.205Z,13.07
2019-03-02T11:49:30.382Z,13.07
2019-03-02T11:52:10.360Z,11.30
2019-03-02T11:54:57.116Z,12.23
2019-03-02T11:57:47.663Z,12.63
2019-03-02T12:00:25.060Z,11.80
2019-03-02T12:03:02.565Z,10.50
2019-03-02T12:05:57.213Z,11.10
2019-03-02T12:08:42.686Z,11.93
2019-03-02T12:11:18.817Z,12.23
2019-03-02T12:14:09.972Z,12.53
2019-03-02T12:17:03.866Z,11.70
2019-03-02T12:19:54.471Z,10.07
2019-03-02T12:22:50.651Z,11.00
2019-03-02T12:25:43.410Z,11.20
2019-03-02T12:28:29.236Z,11.57
2019-03-02T12:31:14.941Z,10.07
2019-03-02T12:34:05.086Z,11.17
2019-03-02T12:36:56.536Z,11.80
2019-03-02T12:39:50.312Z,11.90
2019-03-02T12:42:26.614Z,12.43
2019-03-02T12:45:21.766Z,13.53
2019-03-02T12:48:07.461Z,12.20
2019-03-02T12:50:46.992Z,13.63
2019-03-02T12:53:29.964Z,14.00
2019-03-02T12:56:20.018Z,14.07
2019-03-02T12:58:55.367Z,15.47
2019-03-02T13:01:33.967Z,14.97
2019-03-02T13:04:17.476Z,15.53
2019-03-02T13:07:02.966Z,15.20
2019-03-02T13:09:59.044Z,18.17
2019-03-02T13:12:33.929Z,17.17
2019-03-02T13:15:20.963Z,18.77
2019-03-02T13:17:58.835Z,19.67
2019-03-02T13:20:45.878Z,21.23
2019-03-02T13:23:38.892Z,20.10
2019-03-02T13:26:36.912Z,19.83
2019-03-02T13:29:15.978Z,21.37
2019-03-02T13:31:52.396Z,20.07
2019-03-02T13:34:57.673Z,20.87
2019-03-02T13:37:44.725Z,20.20
2019-03-02T13:40:33.588Z,20.57
2019-03-02T13:43:17.721Z,21.23
2019-03-02T13:46:01.899Z,20.10
2019-03-02T13:48:50.264Z,18.97
2019-03-02T13:51:43.457Z,17.90
2019-03-02T13:54:20.347Z,19.70
2019-03-02T13:57:05.931Z,20.47
2019-03-02T14:00:11.292Z,20.00
2019-03-02T14:03:10.721Z,18.47
2019-03-02T14:05:59.391Z,18.63
2019-03-02T14:08:45.067Z,18.30
2019-03-02T14:11:39.673Z,18.57
2019-03-02T14:14:21.636Z,18.60
2019-03-02T14:17:11.935Z,18.57
2019-03-02T14:19:48.522Z,18.50
2019-03-02T14:22:33.548Z,16.57
2019-03-02T14:25:19.148Z,18.37
2019-03-02T14:28:00.613Z,18.97
2019-03-02T14:30:35.477Z,20.93
2019-03-02T14:33:14.397Z,18.90
2019-03-02T14:36:19.561Z,18.13
2019-03-02T14:39:24.860Z,17.53
2019-03-02T14:42:04.025Z,16.77
2019-03-02T14:44:50.877Z,17.70
2019-03-02T14:47:46.793Z,17.83
2019-03-02T14:50:43.971Z,17.00
2019-03-02T14:53:21.917Z,17.13
2019-03-02T14:56:13.856Z,18.37
2019-03-02T14:59:00.578Z,17.10
2019-03-02T15:01:47.697Z,16.47
2019-03-02T15:04:25.132Z,16.90
2019-03-02T15:07:10.872Z,17.03
2019-03-02T15:10:10.026Z,16.23
2019-03-02T15:12:55.517Z,16.40
2019-03-02T15:15:42.605Z,17.10
2019-03-02T15:18:29.148Z,15.90
2019-03-02T15:21:12.942Z,16.93
2019-03-02T15:23:49.152Z,15.47
2019-03-02T15:26:28.421Z,16.23
2019-03-02T15:29:21.630Z,15.10
2019-03-02T15:32:07.617Z,16.53
2019-03-02T15:34:49.429Z,16.33
2019-03-02T15:37:24.225Z,15.10
2019-03-02T15:40:10.671Z,17.27
2019-03-02T15:42:49.092Z,16.70
2019-03-02T15:45:36.163Z,16.47
2019-03-02T15:48:28.893Z,15.60
2019-03-02T15:51:03.113Z,14.83
2019-03-02T15:53:39.446Z,17.50
2019-03-02T15:56:16.127Z,15.97
2019-03-02T15:59:18.283Z,18.80
2019-03-02T16:02:08.091Z,16.47
2019-03-02T16:04:53.460Z,16.03
2019-03-02T16:07:39.565Z,14.37
2019-03-02T16:10:27.473Z,14.17
2019-03-02T16:13:09.356Z,13.70
2019-03-02T16:16:14.575Z,14.60
2019-03-02T16:18:53.337Z,14.70
2019-03-02T16:21:38.908Z,15.40
2019-03-02T16:24:25.059Z,14.93
2019-03-02T16:27:10.816Z,14.33
2019-03-02T16:29:56.811Z,14.07
2019-03-02T16:32:43.968Z,14.27
2019-03-02T16:35:39.763Z,15.67
2019-03-02T16:38:20.038Z,14.97
2019-03-02T16:40:59.705Z,14.37
2019-03-02T16:43:46.791Z,14.23
2019-03-02T16:46:35.027Z,15.80
2019-03-02T16:49:36.846Z,16.33
2019-03-02T16:52:26.299Z,14.17
2019-03-02T16:55:22.480Z,14.70
2019-03-02T16:58:01.596Z,15.77
2019-03-02T17:00:48.513Z,14.83
2019-03-02T17:03:39.036Z,14.30
2019-03-02T17:06:26.945Z,13.80
2019-03-02T17:09:12.578Z,14.70
2019-03-02T17:11:56.947Z,13.30
2019-03-02T17:14:45.942Z,12.97
2019-03-02T17:17:24.479Z,13.83
2019-03-02T17:20:07.801Z,15.37
2019-03-02T17:22:50.571Z,15.13
2019-03-02T17:25:30.911Z,17.47
2019-03-02T17:28:25.247Z,15.47
2019-03-02T17:31:18.060Z,17.10
2019-03-02T17:34:11.038Z,17.60
2019-03-02T17:37:02.080Z,17.23
2019-03-02T17:39:47.652Z,17.50
2019-03-02T17:42:40.898Z,15.03
2019-03-02T17:45:31.818Z,15.13
2019-03-02T17:48:08.348Z,14.50
2019-03-02T17:50:58.664Z,14.13
2019-03-02T17:53:34.005Z,15.80
2019-03-02T17:56:24.191Z,15.93
2019-03-02T17:59:20.343Z,16.23
2019-03-02T18:01:57.791Z,15.43
2019-03-02T18:04:44.858Z,15.50
2019-03-02T18:07:23.021Z,16.20
2019-03-02T18:10:19.257Z,19.27
2019-03-02T18:13:07.169Z,17.67
2019-03-02T18:15:52.704Z,15.50
2019-03-02T18:18:20.298Z,16.07
2019-03-02T18:20:47.967Z,16.80
2019-03-02T18:23:18.932Z,15.60
2019-03-02T18:25:48.480Z,16.17
2019-03-02T18:28:15.615Z,15.17
2019-03-02T18:30:43.742Z,14.47
2019-03-02T18:33:34.227Z,14.80
2019-03-02T18:36:01.816Z,14.47
2019-03-02T18:38:29.532Z,14.27
2019-03-02T18:40:57.180Z,13.77
2019-03-02T18:43:24.783Z,13.00
2019-03-02T18:45:52.775Z,14.67
2019-03-02T18:48:51.884Z,12.80
2019-03-02T18:51:34.098Z,14.53
2019-03-02T18:54:13.556Z,14.20
2019-03-02T18:56:42.327Z,13.80
2019-03-02T18:59:09.895Z,14.03
2019-03-02T19:01:37.601Z,13.63
2019-03-02T19:04:05.654Z,14.83
2019-03-02T19:06:33.304Z,12.80
2019-03-02T19:09:00.910Z,13.30
2019-03-02T19:11:28.622Z,14.27
2019-03-02T19:13:59.533Z,13.90
2019-03-02T19:16:27.214Z,13.83
2019-03-02T19:18:54.804Z,13.87
2019-03-02T19:21:22.504Z,14.30
2019-03-02T19:23:50.131Z,15.70
2019-03-02T19:26:17.744Z,16.23
2019-03-02T19:28:45.389Z,16.23
2019-03-02T19:31:13.064Z,15.20
2019-03-02T19:33:40.667Z,14.63
2019-03-02T19:36:08.248Z,15.13
2019-03-02T19:38:35.939Z,16.00
2019-03-02T19:41:03.663Z,15.27
2019-03-02T19:43:31.328Z,15.00
2019-03-02T19:45:58.924Z,15.23
2019-03-02T19:48:27.126Z,15.77
2019-03-02T19:50:54.734Z,15.50
2019-03-02T19:53:22.350Z,15.50
2019-03-02T19:55:50.089Z,15.23
2019-03-02T19:58:17.644Z,14.27
2019-03-02T20:00:45.304Z,14.33
2019-03-02T20:03:13.025Z,15.33
2019-03-02T20:05:40.647Z,13.17
2019-03-02T20:08:08.212Z,14.00
2019-03-02T20:10:35.951Z,13.70
2019-03-02T20:13:03.617Z,14.17
2019-03-02T20:15:31.180Z,14.57
2019-03-02T20:17:58.824Z,15.00
2019-03-02T20:20:26.684Z,15.53
2019-03-02T20:22:54.275Z,15.63
2019-03-02T20:25:21.888Z,15.57
2019-03-02T20:27:49.589Z,15.03
2019-03-02T20:30:17.582Z,14.47
2019-03-02T20:32:45.239Z,14.90
2019-03-02T20:35:15.481Z,14.37
2019-03-02T20:37:43.340Z,15.07
2019-03-02T20:40:16.387Z,15.63
2019-03-02T20:42:43.980Z,15.83
2019-03-02T20:45:12.795Z,16.93
2019-03-02T20:47:41.252Z,15.83
2019-03-02T20:50:10.917Z,15.90
2019-03-02T20:52:38.563Z,16.67
2019-03-02T20:55:06.890Z,15.40
2019-03-02T20:57:34.461Z,17.43
2019-03-02T21:00:02.123Z,15.50
2019-03-02T21:02:29.720Z,15.73
2019-03-02T21:04:57.748Z,16.03
2019-03-02T21:07:25.353Z,15.27
2019-03-02T21:09:52.980Z,14.67
2019-03-02T21:12:20.571Z,16.13
2019-03-02T21:14:48.266Z,14.17
2019-03-02T21:17:15.882Z,15.90
2019-03-02T21:19:43.466Z,14.60
2019-03-02T21:22:11.108Z,14.60
2019-03-02T21:24:38.927Z,13.27
2019-03-02T21:27:06.675Z,14.37
2019-03-02T21:29:34.376Z,13.57
2019-03-02T21:32:01.937Z,11.87
2019-03-02T21:34:29.536Z,12.90
2019-03-02T21:36:57.263Z,11.50
2019-03-02T21:39:25.013Z,11.77
2019-03-02T21:41:52.609Z,11.77
2019-03-02T21:44:20.193Z,11.13
2019-03-02T21:46:47.876Z,11.43
2019-03-02T21:49:15.530Z,11.67
2019-03-02T21:51:43.285Z,11.87
2019-03-02T21:54:10.847Z,11.70
2019-03-02T21:56:38.411Z,12.03
2019-03-02T21:59:06.060Z,13.80
2019-03-02T22:01:33.701Z,12.53
2019-03-02T22:04:01.354Z,12.20
2019-03-02T22:06:28.959Z,13.80
2019-03-02T22:08:56.736Z,14.07
2019-03-02T22:11:24.364Z,14.67
2019-03-02T22:13:52.041Z,13.97
2019-03-02T22:16:19.641Z,14.20
2019-03-02T22:18:47.245Z,16.17
2019-03-02T22:21:14.886Z,14.07
2019-03-02T22:23:42.532Z,16.33
2019-03-02T22:26:10.179Z,16.93
2019-03-02T22:28:37.760Z,15.37
2019-03-02T22:31:05.315Z,17.57
2019-03-02T22:33:32.915Z,17.20
2019-03-02T22:36:00.562Z,19.57
2019-03-02T22:38:28.177Z,17.93
2019-03-02T22:40:55.851Z,18.40
2019-03-02T22:43:23.472Z,18.30
2019-03-02T22:45:51.057Z,19.40
2019-03-02T22:48:18.651Z,19.07
2019-03-02T22:50:46.867Z,17.83
2019-03-02T22:53:14.476Z,17.73
2019-03-02T22:55:42.461Z,17.10
2019-03-02T22:58:10.129Z,18.77
2019-03-02T23:01:19.820Z,18.30
2019-03-02T23:03:47.913Z,17.73
2019-03-02T23:06:15.555Z,15.50
2019-03-02T23:08:43.211Z,15.50
2019-03-02T23:11:10.860Z,16.53
2019-03-02T23:13:38.511Z,15.47
2019-03-02T23:16:06.112Z,14.90
2019-03-02T23:18:33.704Z,14.43
2019-03-02T23:21:01.336Z,14.07
2019-03-02T23:23:28.964Z,14.30
2019-03-02T23:25:56.756Z,13.10
2019-03-02T23:28:24.329Z,13.53
2019-03-02T23:30:51.929Z,14.60
2019-03-02T23:33:19.528Z,14.13
2019-03-02T23:35:47.154Z,14.07
2019-03-02T23:38:14.736Z,15.57
2019-03-02T23:40:42.378Z,14.70
2019-03-02T23:43:09.995Z,16.80
2019-03-02T23:45:37.756Z,16.53
2019-03-02T23:48:05.346Z,16.63
2019-03-02T23:50:32.942Z,17.17
2019-03-02T23:53:00.564Z,18.73
2019-03-02T23:55:28.111Z,17.20
2019-03-02T23:57:55.745Z,17.50
